Skip Navigation Links
NOAA logo - Click to go to the NOAA homepage
NOAA's National Weather Service
Alaska Aviation Weather Unit
  NWS logo - Click to go to the NWS homepage
Left Navbar Graphic     17 AKDT = 01 GMT

   
NOAA is celebrating 200 years of science, service, and stewardship. Visit the NOAA 200th celebration Web site to learn more.
USA.gov is the U.S. Government's official Web portal to all Federal, state and local government Web resources and services.
Facebook
NWS on Facebook

Important Change Regarding the AAWU Web Presence

 

Over the last several months, the AAWU has been working to navigate its webpages to a nationally supported server. Security, as well as other needs, have necessitated the change.  We have been given an extension for the site changeover while we diligently work at addressing feedback received. As of July 14, 2017, aawu.arh.noaa.gov will be discontinued. The new AAWU web address is weather.gov/aawu. It is now live and will run in-parallel with the old site until it is discontinued on July 14, 2017. Please continue to send any feedback or questions regarding the new webpages to nws.ar.aawu.webauthors@noaa.gov.  Thank you for your patience during this time of transition.
AAWU Home :: Display TAF Add Bookmark
METAR PAIM 171955Z AUTO 00000KT 10SM FEW040 BKN055 M02/M03 A2939=

PAIM 172051Z AUTO 00000KT 10SM -RA FEW030 OVC055 M02/M03 A2939=

METAR PAIM 172055Z AUTO 00000KT 10SM -RA OVC055 M02/M03 A2939=

METAR PAIM 172155Z AUTO 24004KT 10SM OVC049 M02/M03 A2938=

PAIM 172251Z AUTO 24006KT 10SM FEW027 OVC047 M02/M03 A2937=

METAR PAIM 172255Z AUTO 24004KT 10SM OVC047 M02/M03 A2937=

PAIM 172331Z AUTO 25002KT 10SM -RA FEW018 BKN050 M02/M03 A2936=

PAIM 172351Z AUTO VRB03KT 10SM FEW026 BKN050 BKN085 M01/M03 A2936=

METAR PAIM 172355Z AUTO 25001KT 10SM FEW026 BKN050 BKN085 M01/M03
     A2936=

PAIM 180011Z AUTO 00000KT 10SM -SHSN FEW035 BKN049 BKN085 M02/M03
A2935=

PAIM 180031Z AUTO 00000KT 8SM -SHRASN FEW015 FEW027 BKN039 BKN085
M02/M03 A2935=

PAIM 180051Z AUTO 22002KT 5SM -SN FEW015 OVC029 M02/M03 A2935=

METAR PAIM 180055Z AUTO 24004KT 5SM -SN FEW015 OVC027 M02/M03 A2935=

PAIM 180111Z AUTO VRB03KT 1 1/4SM -SN OVC022 M02/M03 A2934=

PAIM 180131Z AUTO 24002KT 4SM -SN OVC022 M02/M03 A2934=


NOAA's National Weather Service
Alaska Aviation Weather Unit
6930 Sand Lake Road
Anchorage, AK 99502-1845
Disclaimer
Credits
Glossary
Privacy Policy
About Us
Career Opportunities
Contact AAWU Internet Services Site last modified: April, 17th 2012